createdAt,value
2023-05-09T00:00:12.481Z,0.50
2023-05-09T00:03:36.604Z,0.45
2023-05-09T00:06:58.869Z,0.60
2023-05-09T00:10:21.232Z,0.50
2023-05-09T00:13:44.260Z,0.50
2023-05-09T00:17:07.832Z,0.50
2023-05-09T00:20:30.137Z,0.50
2023-05-09T00:23:52.445Z,0.40
2023-05-09T00:27:14.947Z,0.57
2023-05-09T00:30:37.493Z,0.45
2023-05-09T00:33:59.756Z,0.40
2023-05-09T00:37:22.034Z,0.70
2023-05-09T00:40:44.282Z,0.50
2023-05-09T00:44:07.006Z,0.40
2023-05-09T00:47:29.803Z,0.50
2023-05-09T00:50:53.151Z,0.65
2023-05-09T00:54:15.574Z,0.47
2023-05-09T00:57:37.815Z,0.50
2023-05-09T01:01:02.261Z,0.50
2023-05-09T01:04:24.930Z,0.45
2023-05-09T01:08:10.511Z,0.52
2023-05-09T01:11:39.199Z,0.43
2023-05-09T01:15:12.601Z,0.63
2023-05-09T01:18:49.842Z,0.60
2023-05-09T01:22:16.273Z,0.35
2023-05-09T01:25:55.951Z,0.57
2023-05-09T01:29:21.267Z,0.68
2023-05-09T01:36:12.865Z,0.47
2023-05-09T01:39:38.574Z,0.40
2023-05-09T01:43:07.107Z,0.35
2023-05-09T01:46:30.723Z,0.55
2023-05-09T01:49:55.138Z,0.75
2023-05-09T01:53:17.932Z,0.40
2023-05-09T01:56:42.374Z,0.40
2023-05-09T02:00:07.946Z,0.40
2023-05-09T02:03:37.612Z,0.20
2023-05-09T02:07:01.824Z,0.88
2023-05-09T02:10:27.694Z,0.35
2023-05-09T02:13:50.751Z,0.45
2023-05-09T02:17:16.955Z,0.40
2023-05-09T02:20:39.670Z,0.50
2023-05-09T02:24:02.588Z,0.47
2023-05-09T02:27:27.055Z,0.28
2023-05-09T02:30:51.422Z,0.35
2023-05-09T02:34:14.670Z,0.40
2023-05-09T02:37:37.424Z,0.30
2023-05-09T02:40:59.716Z,0.30
2023-05-09T02:44:22.295Z,0.40
2023-05-09T02:47:44.615Z,0.30
2023-05-09T02:51:06.939Z,0.35
2023-05-09T02:54:29.588Z,0.30
2023-05-09T02:57:58.859Z,0.25
2023-05-09T03:01:29.277Z,0.22
2023-05-09T03:04:51.615Z,0.10
2023-05-09T03:08:13.849Z,0.40
2023-05-09T03:11:39.313Z,0.30
2023-05-09T03:15:01.694Z,0.40
2023-05-09T03:18:25.205Z,0.20
2023-05-09T03:21:47.826Z,0.40
2023-05-09T03:25:10.493Z,0.10
2023-05-09T03:28:32.741Z,0.25
2023-05-09T03:31:59.321Z,0.28
2023-05-09T03:35:21.828Z,0.30
2023-05-09T03:38:44.302Z,0.20
2023-05-09T03:42:07.139Z,0.20
2023-05-09T03:45:29.481Z,0.20
2023-05-09T03:48:52.454Z,0.30
2023-05-09T03:52:14.968Z,0.13
2023-05-09T03:55:38.269Z,0.20
2023-05-09T03:59:01.517Z,0.20
2023-05-09T04:02:24.533Z,0.20
2023-05-09T04:05:47.301Z,0.20
2023-05-09T04:09:19.550Z,0.10
2023-05-09T04:12:43.428Z,0.13
2023-05-09T04:16:06.728Z,0.17
2023-05-09T04:19:29.806Z,0.20
2023-05-09T04:22:52.095Z,0.20
2023-05-09T04:26:16.298Z,0.30
2023-05-09T04:33:03.489Z,0.10
2023-05-09T04:36:27.548Z,0.20
2023-05-09T04:39:52.373Z,0.30
2023-05-09T04:43:21.072Z,0.20
2023-05-09T04:46:43.897Z,0.17
2023-05-09T04:50:06.893Z,0.10
2023-05-09T04:53:29.631Z,0.98
2023-05-09T04:56:53.261Z,0.13
2023-05-09T05:00:19.775Z,0.10
2023-05-09T05:03:44.172Z,0.15
2023-05-09T05:07:06.790Z,0.30
2023-05-09T05:10:30.454Z,0.20
2023-05-09T05:14:01.581Z,0.20
2023-05-09T05:17:24.877Z,0.20
2023-05-09T05:20:47.898Z,0.20
2023-05-09T05:24:10.324Z,0.10
2023-05-09T05:27:32.744Z,0.10
2023-05-09T05:30:55.346Z,0.10
2023-05-09T05:34:17.898Z,0.20
2023-05-09T05:37:42.100Z,0.32
2023-05-09T05:41:04.787Z,0.20
2023-05-09T05:44:27.211Z,0.20
2023-05-09T05:47:49.577Z,0.20
2023-05-09T05:51:12.829Z,0.20
2023-05-09T05:54:37.209Z,0.20
2023-05-09T05:57:59.543Z,0.20
2023-05-09T06:01:21.871Z,0.10
2023-05-09T06:04:44.380Z,0.28
2023-05-09T06:08:07.143Z,0.15
2023-05-09T06:11:29.427Z,0.20
2023-05-09T06:14:51.917Z,0.10
2023-05-09T06:18:14.616Z,0.10
2023-05-09T06:21:36.876Z,0.20
2023-05-09T06:24:59.228Z,0.17
2023-05-09T06:28:21.486Z,0.20
2023-05-09T06:31:44.321Z,0.20
2023-05-09T06:35:06.870Z,0.10
2023-05-09T06:38:29.133Z,0.20
2023-05-09T06:41:51.354Z,0.28
2023-05-09T06:45:20.370Z,0.30
2023-05-09T06:48:42.957Z,0.40
2023-05-09T06:52:05.244Z,0.20
2023-05-09T06:55:27.542Z,0.10
2023-05-09T06:58:49.848Z,0.10
2023-05-09T07:02:12.097Z,0.20
2023-05-09T07:05:34.679Z,0.10
2023-05-09T07:08:56.925Z,0.20
2023-05-09T07:12:19.167Z,0.20
2023-05-09T07:15:42.956Z,0.10
2023-05-09T07:19:05.874Z,0.20
2023-05-09T07:22:30.686Z,0.20
2023-05-09T07:25:59.643Z,0.20
2023-05-09T07:29:22.215Z,0.15
2023-05-09T07:32:44.682Z,0.20
2023-05-09T07:36:07.027Z,0.20
2023-05-09T07:39:29.327Z,0.30
2023-05-09T07:42:54.196Z,0.25
2023-05-09T07:46:16.519Z,0.20
2023-05-09T07:49:40.270Z,0.03
2023-05-09T07:53:02.592Z,0.30
2023-05-09T07:56:24.828Z,0.20
2023-05-09T07:59:47.190Z,0.28
2023-05-09T08:03:09.546Z,0.20
2023-05-09T08:06:32.242Z,0.28
2023-05-09T08:09:54.495Z,1.02
2023-05-09T08:13:16.880Z,1.00
2023-05-09T08:16:39.247Z,0.70
2023-05-09T08:20:01.611Z,0.90
2023-05-09T08:23:24.047Z,0.70
2023-05-09T08:26:46.380Z,0.60
2023-05-09T08:30:09.048Z,0.80
2023-05-09T08:33:31.582Z,0.60
2023-05-09T08:36:53.865Z,0.80
2023-05-09T08:40:17.170Z,0.75
2023-05-09T08:43:40.997Z,0.70
2023-05-09T08:47:06.514Z,0.50
2023-05-09T08:50:28.977Z,0.50
2023-05-09T08:53:51.850Z,0.65
2023-05-09T08:57:15.710Z,0.60
2023-05-09T09:00:38.904Z,0.60
2023-05-09T09:04:02.953Z,0.68
2023-05-09T09:07:26.743Z,0.73
2023-05-09T09:10:49.539Z,0.50
2023-05-09T09:14:15.615Z,0.70
2023-05-09T09:17:42.702Z,0.30
2023-05-09T09:21:12.206Z,0.57
2023-05-09T09:24:34.638Z,0.47
2023-05-09T09:27:56.914Z,0.32
2023-05-09T09:31:24.070Z,0.40
2023-05-09T09:35:07.909Z,0.30
2023-05-09T09:38:41.269Z,0.40
2023-05-09T09:42:13.302Z,0.50
2023-05-09T09:45:36.583Z,0.70
2023-05-09T09:48:59.502Z,0.40
2023-05-09T09:52:25.224Z,0.90
2023-05-09T09:55:52.095Z,0.55
2023-05-09T09:59:17.282Z,0.40
2023-05-09T10:02:57.378Z,0.40
2023-05-09T10:06:19.551Z,0.40
2023-05-09T10:09:42.430Z,0.60
2023-05-09T10:13:09.980Z,0.80
2023-05-09T10:16:43.168Z,0.82
2023-05-09T10:20:07.156Z,0.80
2023-05-09T10:23:37.377Z,0.68
2023-05-09T10:27:04.659Z,0.70
2023-05-09T10:30:40.103Z,0.60
2023-05-09T10:37:28.681Z,0.65
2023-05-09T10:40:51.510Z,0.60
2023-05-09T10:44:13.949Z,0.50
2023-05-09T10:47:37.084Z,0.30
2023-05-09T10:51:01.467Z,0.55
2023-05-09T10:54:30.672Z,0.57
2023-05-09T10:57:54.878Z,0.43
2023-05-09T11:01:37.276Z,0.65
2023-05-09T11:05:17.760Z,0.40
2023-05-09T11:08:42.558Z,0.50
2023-05-09T11:12:04.771Z,0.50
2023-05-09T11:15:27.915Z,0.60
2023-05-09T11:18:52.786Z,0.60
2023-05-09T11:22:30.673Z,0.45
2023-05-09T11:25:53.705Z,0.45
2023-05-09T11:29:16.144Z,0.50
2023-05-09T11:32:53.855Z,0.40
2023-05-09T11:36:33.479Z,0.70
2023-05-09T11:40:03.013Z,0.40
2023-05-09T11:43:25.524Z,0.40
2023-05-09T11:46:49.489Z,0.30
2023-05-09T11:50:13.325Z,0.45
2023-05-09T11:53:46.640Z,0.60
2023-05-09T11:57:09.384Z,0.30
2023-05-09T12:00:32.127Z,0.30
2023-05-09T12:03:54.523Z,0.35
2023-05-09T12:07:18.454Z,0.28
2023-05-09T12:10:40.873Z,0.45
2023-05-09T12:14:03.500Z,0.30
2023-05-09T12:17:26.260Z,0.45
2023-05-09T12:20:52.567Z,0.88
2023-05-09T12:24:20.649Z,1.50
2023-05-09T12:27:43.027Z,1.63
2023-05-09T12:31:06.666Z,1.45
2023-05-09T12:34:29.665Z,1.45
2023-05-09T12:37:57.268Z,1.13
2023-05-09T12:41:35.091Z,0.98
2023-05-09T12:45:03.116Z,1.13
2023-05-09T12:48:26.202Z,1.30
2023-05-09T12:51:50.434Z,1.10
2023-05-09T12:55:14.088Z,1.20
2023-05-09T12:58:36.650Z,0.90
2023-05-09T13:02:01.944Z,1.50
2023-05-09T13:05:24.447Z,0.93
2023-05-09T13:08:59.094Z,0.77
2023-05-09T13:12:21.371Z,1.00
2023-05-09T13:15:44.764Z,0.82
2023-05-09T13:19:07.219Z,0.95
2023-05-09T13:22:29.501Z,0.85
2023-05-09T13:25:51.728Z,0.90
2023-05-09T13:29:13.946Z,0.70
2023-05-09T13:32:38.992Z,0.80
2023-05-09T13:39:24.683Z,0.70
2023-05-09T13:42:48.957Z,0.65
2023-05-09T13:46:11.301Z,0.60
2023-05-09T13:49:34.867Z,0.50
2023-05-09T13:52:57.232Z,0.60
2023-05-09T13:56:19.558Z,0.55
2023-05-09T13:59:42.459Z,0.38
2023-05-09T14:03:05.037Z,0.70
2023-05-09T14:06:28.969Z,0.60
2023-05-09T14:09:58.792Z,0.50
2023-05-09T14:13:31.981Z,0.63
2023-05-09T14:16:54.671Z,0.50
2023-05-09T14:20:17.180Z,0.50
2023-05-09T14:23:39.532Z,0.40
2023-05-09T14:27:02.153Z,0.50
2023-05-09T14:30:25.820Z,0.35
2023-05-09T14:33:48.149Z,0.47
2023-05-09T14:37:13.844Z,0.20
2023-05-09T14:40:36.346Z,0.40
2023-05-09T14:43:58.653Z,0.40
2023-05-09T14:47:21.046Z,0.30
2023-05-09T14:50:43.324Z,0.68
2023-05-09T14:54:05.758Z,0.32
2023-05-09T14:57:28.295Z,0.40
2023-05-09T15:00:50.789Z,0.40
2023-05-09T15:04:13.262Z,0.40
2023-05-09T15:07:35.905Z,0.40
2023-05-09T15:10:58.251Z,0.30
2023-05-09T15:14:20.705Z,0.68
2023-05-09T15:17:44.612Z,0.45
2023-05-09T15:21:06.961Z,0.30
2023-05-09T15:24:29.798Z,0.43
2023-05-09T15:27:52.190Z,0.40
2023-05-09T15:31:14.639Z,0.30
2023-05-09T15:34:37.186Z,0.30
2023-05-09T15:37:59.941Z,0.40
2023-05-09T15:41:22.379Z,0.30
2023-05-09T15:44:45.223Z,0.30
2023-05-09T15:48:07.496Z,0.47
2023-05-09T15:51:30.174Z,0.40
2023-05-09T15:54:52.515Z,0.50
2023-05-09T15:58:16.415Z,0.40
2023-05-09T16:01:38.929Z,0.32
2023-05-09T16:05:01.248Z,0.50
2023-05-09T16:08:23.442Z,0.40
2023-05-09T16:11:45.721Z,0.47
2023-05-09T16:15:08.713Z,0.60
2023-05-09T16:18:31.495Z,0.60
2023-05-09T16:21:53.729Z,0.63
2023-05-09T16:25:16.774Z,0.50
2023-05-09T16:28:40.173Z,0.40
2023-05-09T16:32:02.930Z,0.40
2023-05-09T16:35:25.411Z,0.40
2023-05-09T16:38:47.726Z,0.45
2023-05-09T16:42:10.005Z,0.43
2023-05-09T16:45:32.327Z,0.30
2023-05-09T16:48:55.623Z,0.40
2023-05-09T16:52:18.204Z,0.38
2023-05-09T16:55:40.813Z,0.68
2023-05-09T16:59:03.502Z,0.50
2023-05-09T17:02:25.828Z,0.50
2023-05-09T17:05:48.089Z,0.47
2023-05-09T17:09:10.289Z,0.30
2023-05-09T17:12:32.524Z,0.38
2023-05-09T17:15:54.780Z,0.47
2023-05-09T17:19:17.217Z,0.40
2023-05-09T17:22:39.535Z,0.30
2023-05-09T17:26:01.820Z,0.50
2023-05-09T17:29:24.266Z,0.70
2023-05-09T17:32:46.778Z,0.43
2023-05-09T17:36:09.212Z,0.40
2023-05-09T17:39:32.174Z,0.32
2023-05-09T17:42:54.512Z,0.50
2023-05-09T17:46:16.857Z,0.60
2023-05-09T17:49:39.151Z,0.50
2023-05-09T17:53:01.493Z,0.47
2023-05-09T17:56:23.941Z,0.52
2023-05-09T17:59:47.969Z,0.60
2023-05-09T18:03:10.353Z,0.90
2023-05-09T18:06:33.183Z,1.63
2023-05-09T18:09:55.427Z,1.90
2023-05-09T18:13:17.754Z,2.10
2023-05-09T18:16:40.048Z,1.38
2023-05-09T18:20:03.183Z,1.27
2023-05-09T18:23:26.080Z,1.40
2023-05-09T18:26:49.022Z,1.45
2023-05-09T18:30:11.604Z,1.38
2023-05-09T18:33:39.676Z,1.30
2023-05-09T18:37:01.998Z,1.42
2023-05-09T18:40:24.210Z,0.80
2023-05-09T18:43:46.496Z,1.30
2023-05-09T18:47:08.811Z,1.00
2023-05-09T18:50:31.615Z,0.73
2023-05-09T18:53:53.932Z,0.88
2023-05-09T18:57:16.134Z,1.20
2023-05-09T19:00:39.605Z,1.13
2023-05-09T19:04:03.909Z,2.40
2023-05-09T19:07:26.497Z,0.60
2023-05-09T19:10:48.725Z,0.57
2023-05-09T19:14:11.080Z,0.52
2023-05-09T19:17:33.295Z,0.40
2023-05-09T19:20:57.595Z,1.10
2023-05-09T19:24:20.443Z,0.70
2023-05-09T19:27:42.764Z,0.70
2023-05-09T19:31:05.055Z,1.00
2023-05-09T19:34:28.560Z,0.50
2023-05-09T19:37:50.868Z,1.17
2023-05-09T19:41:14.193Z,0.55
2023-05-09T19:44:36.592Z,0.93
2023-05-09T19:47:59.455Z,0.52
2023-05-09T19:51:21.919Z,0.63
2023-05-09T19:54:44.398Z,0.60
2023-05-09T19:58:06.668Z,0.63
2023-05-09T20:01:28.982Z,0.75
2023-05-09T20:04:51.207Z,0.77
2023-05-09T20:08:13.499Z,0.80
2023-05-09T20:11:35.726Z,0.70
2023-05-09T20:14:57.996Z,0.80
2023-05-09T20:18:20.180Z,0.93
2023-05-09T20:21:42.517Z,0.40
2023-05-09T20:25:05.396Z,0.60
2023-05-09T20:28:28.127Z,0.80
2023-05-09T20:31:50.457Z,0.50
2023-05-09T20:35:12.954Z,0.60
2023-05-09T20:38:36.071Z,0.60
2023-05-09T20:42:02.255Z,0.55
2023-05-09T20:45:24.699Z,0.52
2023-05-09T20:48:47.179Z,0.50
2023-05-09T20:52:09.380Z,0.45
2023-05-09T20:55:31.624Z,0.40
2023-05-09T20:58:54.299Z,0.32
2023-05-09T21:02:16.634Z,0.60
2023-05-09T21:05:38.991Z,0.60
2023-05-09T21:09:01.305Z,0.32
2023-05-09T21:12:23.516Z,0.35
2023-05-09T21:15:48.184Z,0.40
2023-05-09T21:19:10.880Z,0.57
2023-05-09T21:22:33.314Z,0.50
2023-05-09T21:25:55.649Z,0.60
2023-05-09T21:29:17.978Z,0.47
2023-05-09T21:32:40.380Z,0.50
2023-05-09T21:36:02.681Z,0.50
2023-05-09T21:39:24.850Z,0.57
2023-05-09T21:42:47.861Z,0.35
2023-05-09T21:46:10.311Z,0.35
2023-05-09T21:49:32.743Z,0.57
2023-05-09T21:52:56.242Z,0.60
2023-05-09T21:56:18.567Z,0.30
2023-05-09T21:59:40.847Z,0.40
2023-05-09T22:03:03.163Z,0.50
2023-05-09T22:06:25.499Z,0.40
2023-05-09T22:09:48.068Z,0.63
2023-05-09T22:13:10.418Z,0.65
2023-05-09T22:16:32.992Z,0.70
2023-05-09T22:19:55.203Z,0.70
2023-05-09T22:23:17.489Z,0.30
2023-05-09T22:26:39.711Z,0.43
2023-05-09T22:30:02.793Z,0.50
2023-05-09T22:33:25.002Z,0.50
2023-05-09T22:36:47.303Z,0.40
2023-05-09T22:40:09.898Z,0.50
2023-05-09T22:43:38.886Z,0.30
2023-05-09T22:47:02.056Z,0.43
2023-05-09T22:50:24.359Z,0.63
2023-05-09T22:53:46.716Z,0.50
2023-05-09T22:57:09.072Z,0.52
2023-05-09T23:00:31.455Z,0.40
2023-05-09T23:03:53.744Z,0.57
2023-05-09T23:07:16.246Z,0.52
2023-05-09T23:10:38.591Z,0.57
2023-05-09T23:14:00.766Z,0.68
2023-05-09T23:17:23.142Z,0.57
2023-05-09T23:20:45.564Z,0.50
2023-05-09T23:24:08.216Z,0.45
2023-05-09T23:27:31.258Z,0.68
2023-05-09T23:30:54.285Z,0.38
2023-05-09T23:34:17.536Z,0.47
2023-05-09T23:37:39.818Z,0.60
2023-05-09T23:41:02.022Z,0.77
2023-05-09T23:44:24.489Z,0.80
2023-05-09T23:47:46.800Z,0.57
2023-05-09T23:51:09.192Z,0.70
2023-05-09T23:54:31.527Z,0.52
2023-05-09T23:57:53.846Z,0.85
